Time;durP1;ratioP1;P1;durP2;ratioP2;P2;SDS_P1;SDS_P2;PMS_P1;PMS_P2;Temp;Humidity;BMP_temperature;BMP_pressure;BME280_temperature;BME280_humidity;BME280_pressure;Samples;Min_cycle;Max_cycle;Signal;HPM_P1;HPM_P2
2024/01/04 00:00:38;;;;;;;0.83;0.33;;;;;;;;;;5020743;28;20673;-76
2024/01/04 00:03:04;;;;;;;0.57;0.30;;;;;;;;;;5038241;28;20255;-76
2024/01/04 00:05:29;;;;;;;1.65;0.25;;;;;;;;;;5038162;28;20285;-76
2024/01/04 00:07:54;;;;;;;0.50;0.30;;;;;;;;;;5038237;28;20029;-76
2024/01/04 00:10:19;;;;;;;0.60;0.30;;;;;;;;;;5037236;28;20278;-75
2024/01/04 00:12:45;;;;;;;0.40;0.30;;;;;;;;;;5037371;28;20255;-77
2024/01/04 00:15:10;;;;;;;1.40;0.20;;;;;;;;;;5038300;28;20492;-75
2024/01/04 00:17:36;;;;;;;0.85;0.30;;;;;;;;;;5037213;28;20151;-76
2024/01/04 00:20:01;;;;;;;0.52;0.20;;;;;;;;;;5037188;28;20053;-75
2024/01/04 00:22:26;;;;;;;0.65;0.30;;;;;;;;;;5037054;28;20412;-76
2024/01/04 00:24:51;;;;;;;0.97;0.37;;;;;;;;;;5037043;28;20400;-77
2024/01/04 00:27:17;;;;;;;0.10;0.10;;;;;;;;;;5018581;28;20688;-75
2024/01/04 00:29:42;;;;;;;0.52;0.30;;;;;;;;;;5036538;28;20707;-76
2024/01/04 00:32:08;;;;;;;0.60;0.20;;;;;;;;;;5036853;28;20048;-76
2024/01/04 00:34:33;;;;;;;0.38;0.22;;;;;;;;;;5036395;28;20032;-76
2024/01/04 00:36:59;;;;;;;0.30;0.20;;;;;;;;;;5035974;28;20021;-75
2024/01/04 00:39:24;;;;;;;1.88;0.35;;;;;;;;;;5018165;28;20349;-76
2024/01/04 00:41:51;;;;;;;1.40;0.30;;;;;;;;;;5018042;28;20032;-76
2024/01/04 00:44:16;;;;;;;0.95;0.30;;;;;;;;;;5036201;28;20017;-76
2024/01/04 00:46:41;;;;;;;1.08;0.28;;;;;;;;;;5036070;28;20048;-76
2024/01/04 00:49:07;;;;;;;0.43;0.15;;;;;;;;;;5036474;28;20038;-76
2024/01/04 00:51:32;;;;;;;0.25;0.13;;;;;;;;;;5018778;28;20037;-76
2024/01/04 00:53:57;;;;;;;0.70;0.35;;;;;;;;;;5037608;28;20061;-75
2024/01/04 00:56:22;;;;;;;0.50;0.32;;;;;;;;;;5037360;28;20033;-77
2024/01/04 00:58:48;;;;;;;3.00;0.40;;;;;;;;;;5038145;28;20108;-77
2024/01/04 01:01:13;;;;;;;0.57;0.10;;;;;;;;;;5019847;28;20309;-77
2024/01/04 01:03:38;;;;;;;1.20;0.30;;;;;;;;;;5020342;28;20266;-75
2024/01/04 01:06:08;;;;;;;0.27;0.10;;;;;;;;;;5038117;28;20258;-76
2024/01/04 01:08:33;;;;;;;1.23;0.40;;;;;;;;;;5020276;28;20266;-76
2024/01/04 01:10:58;;;;;;;0.17;0.17;;;;;;;;;;5038178;28;20029;-77
2024/01/04 01:13:23;;;;;;;0.90;0.20;;;;;;;;;;5038486;28;20270;-76
2024/01/04 01:15:49;;;;;;;1.43;0.20;;;;;;;;;;5020469;28;20060;-75
2024/01/04 01:18:14;;;;;;;0.55;0.20;;;;;;;;;;5039164;28;20258;-76
2024/01/04 01:20:39;;;;;;;0.20;0.20;;;;;;;;;;5040689;28;20104;-77
2024/01/04 01:23:04;;;;;;;0.03;0.03;;;;;;;;;;5039798;28;20391;-76
2024/01/04 01:25:30;;;;;;;0.63;0.13;;;;;;;;;;5035435;28;20622;-76
2024/01/04 01:27:55;;;;;;;1.55;0.30;;;;;;;;;;5035693;28;20266;-76
2024/01/04 01:30:20;;;;;;;0.97;0.20;;;;;;;;;;5035897;28;20064;-75
2024/01/04 01:32:45;;;;;;;0.10;0.10;;;;;;;;;;5035857;28;20251;-75
2024/01/04 01:35:11;;;;;;;2.35;0.30;;;;;;;;;;5035991;28;20340;-75
2024/01/04 01:37:37;;;;;;;0.22;0.22;;;;;;;;;;5036214;28;20029;-76
2024/01/04 01:40:02;;;;;;;0.57;0.20;;;;;;;;;;5036101;28;20029;-76
2024/01/04 01:42:28;;;;;;;0.35;0.22;;;;;;;;;;5036649;28;20382;-75
2024/01/04 01:44:53;;;;;;;0.30;0.20;;;;;;;;;;5036058;28;20033;-77
2024/01/04 01:47:18;;;;;;;0.55;0.20;;;;;;;;;;5036521;28;20092;-77
2024/01/04 01:49:44;;;;;;;0.30;0.30;;;;;;;;;;5036779;28;20029;-76
2024/01/04 01:52:09;;;;;;;1.45;0.30;;;;;;;;;;5036872;28;20485;-75
2024/01/04 01:54:34;;;;;;;0.20;0.13;;;;;;;;;;5036790;28;20447;-77
2024/01/04 01:57:00;;;;;;;0.95;0.30;;;;;;;;;;5018592;28;20075;-76
2024/01/04 01:59:27;;;;;;;1.23;0.28;;;;;;;;;;5036215;28;20049;-75
2024/01/04 02:01:53;;;;;;;0.17;0.17;;;;;;;;;;5036304;28;20104;-76
2024/01/04 02:04:18;;;;;;;0.65;0.30;;;;;;;;;;5035528;28;20068;-76
2024/01/04 02:06:43;;;;;;;0.17;0.13;;;;;;;;;;5036655;28;20029;-77
2024/01/04 02:09:08;;;;;;;1.13;0.30;;;;;;;;;;5036474;28;20294;-77
2024/01/04 02:11:34;;;;;;;0.43;0.17;;;;;;;;;;5036476;28;20271;-77
2024/01/04 02:13:59;;;;;;;1.05;0.40;;;;;;;;;;5019302;28;20289;-77
2024/01/04 02:16:24;;;;;;;0.73;0.30;;;;;;;;;;5035391;28;20124;-77
2024/01/04 02:18:49;;;;;;;0.93;0.17;;;;;;;;;;5035087;28;20282;-76
2024/01/04 02:21:14;;;;;;;0.98;0.17;;;;;;;;;;5035843;28;20729;-77
2024/01/04 02:23:40;;;;;;;0.80;0.30;;;;;;;;;;5036389;28;20046;-77
2024/01/04 02:26:05;;;;;;;0.60;0.10;;;;;;;;;;5036428;28;20615;-77
2024/01/04 02:28:30;;;;;;;0.10;0.10;;;;;;;;;;5036016;28;20095;-76
2024/01/04 02:30:55;;;;;;;0.47;0.20;;;;;;;;;;5035978;28;20399;-76
2024/01/04 02:33:21;;;;;;;0.50;0.13;;;;;;;;;;5036713;28;20314;-77
2024/01/04 02:35:46;;;;;;;1.60;0.20;;;;;;;;;;5036415;28;20021;-77
2024/01/04 02:38:11;;;;;;;1.27;0.40;;;;;;;;;;5036131;28;20258;-75
2024/01/04 02:40:36;;;;;;;0.10;0.10;;;;;;;;;;5036254;28;20259;-77
2024/01/04 02:43:02;;;;;;;1.30;0.30;;;;;;;;;;5037409;28;20048;-77
2024/01/04 02:45:27;;;;;;;1.20;0.20;;;;;;;;;;5036026;28;20025;-77
2024/01/04 02:47:52;;;;;;;0.10;0.10;;;;;;;;;;5036150;28;20036;-77
2024/01/04 02:50:18;;;;;;;1.45;0.22;;;;;;;;;;5017987;28;20270;-77
2024/01/04 02:52:44;;;;;;;0.77;0.30;;;;;;;;;;5018690;28;20021;-77
2024/01/04 02:55:09;;;;;;;0.57;0.30;;;;;;;;;;5035639;28;20435;-76
2024/01/04 02:57:34;;;;;;;1.45;0.30;;;;;;;;;;5035992;28;20026;-76
2024/01/04 03:00:00;;;;;;;0.25;0.17;;;;;;;;;;5035489;28;20017;-77
2024/01/04 03:02:25;;;;;;;0.17;0.17;;;;;;;;;;5036048;28;20033;-76
2024/01/04 03:04:50;;;;;;;0.67;0.30;;;;;;;;;;5036084;28;20037;-76
2024/01/04 03:07:15;;;;;;;0.20;0.20;;;;;;;;;;5036433;28;20645;-76
2024/01/04 03:09:40;;;;;;;0.40;0.20;;;;;;;;;;5035853;28;20274;-76
2024/01/04 03:12:06;;;;;;;0.53;0.20;;;;;;;;;;5036346;28;20629;-77
2024/01/04 03:14:31;;;;;;;0.88;0.30;;;;;;;;;;5018504;28;20617;-76
2024/01/04 03:16:56;;;;;;;0.60;0.30;;;;;;;;;;5039758;28;20025;-77
2024/01/04 03:19:21;;;;;;;0.63;0.47;;;;;;;;;;5039771;28;20305;-76
2024/01/04 03:21:46;;;;;;;0.83;0.30;;;;;;;;;;5040763;28;20258;-76
2024/01/04 03:24:12;;;;;;;0.60;0.30;;;;;;;;;;5040720;28;20258;-75
2024/01/04 03:26:37;;;;;;;1.10;0.30;;;;;;;;;;5040433;28;20255;-75
2024/01/04 03:29:02;;;;;;;0.50;0.27;;;;;;;;;;5040368;28;20057;-76
2024/01/04 03:31:27;;;;;;;0.32;0.20;;;;;;;;;;5021979;28;20259;-76
2024/01/04 03:33:53;;;;;;;0.20;0.20;;;;;;;;;;5040250;28;20029;-76
2024/01/04 03:36:18;;;;;;;0.13;0.13;;;;;;;;;;5040429;28;20029;-77
2024/01/04 03:38:45;;;;;;;0.40;0.20;;;;;;;;;;5040147;28;20025;-77
2024/01/04 03:41:10;;;;;;;0.45;0.20;;;;;;;;;;5039299;28;20281;-77
2024/01/04 03:43:35;;;;;;;0.57;0.30;;;;;;;;;;5039489;28;20025;-77
2024/01/04 03:46:04;;;;;;;1.45;0.40;;;;;;;;;;5022199;28;20261;-77
2024/01/04 03:48:30;;;;;;;0.30;0.15;;;;;;;;;;5038831;28;20052;-76
2024/01/04 03:50:55;;;;;;;0.33;0.30;;;;;;;;;;5038161;28;20029;-76
2024/01/04 03:53:20;;;;;;;1.03;0.30;;;;;;;;;;5038872;28;20357;-76
2024/01/04 03:55:45;;;;;;;1.40;0.20;;;;;;;;;;5038315;28;20293;-76
2024/01/04 03:58:10;;;;;;;0.20;0.20;;;;;;;;;;5038998;28;20267;-76
2024/01/04 04:00:36;;;;;;;0.52;0.20;;;;;;;;;;5039077;28;20021;-76
2024/01/04 04:03:01;;;;;;;0.65;0.20;;;;;;;;;;5021677;28;20029;-76
2024/01/04 04:05:26;;;;;;;1.40;0.30;;;;;;;;;;5039683;28;20101;-78
2024/01/04 04:07:51;;;;;;;0.40;0.20;;;;;;;;;;5039135;28;20262;-76
2024/01/04 04:10:16;;;;;;;0.50;0.20;;;;;;;;;;5039130;28;20289;-76
2024/01/04 04:12:42;;;;;;;0.63;0.00;;;;;;;;;;5039195;28;20286;-76
2024/01/04 04:15:08;;;;;;;0.20;0.20;;;;;;;;;;5021332;28;20274;-76
2024/01/04 04:17:34;;;;;;;0.10;0.10;;;;;;;;;;5038798;28;20262;-76
2024/01/04 04:19:59;;;;;;;0.30;0.20;;;;;;;;;;5021205;28;20014;-76
2024/01/04 04:22:25;;;;;;;0.00;0.00;;;;;;;;;;5038463;28;20104;-76
2024/01/04 04:24:50;;;;;;;0.23;0.10;;;;;;;;;;5038896;28;20037;-76
2024/01/04 04:27:15;;;;;;;0.40;0.20;;;;;;;;;;5037545;28;20251;-75
2024/01/04 04:29:40;;;;;;;0.73;0.10;;;;;;;;;;5038100;28;20278;-75
2024/01/04 04:32:06;;;;;;;0.55;0.20;;;;;;;;;;5038479;28;20263;-76
2024/01/04 04:34:32;;;;;;;0.50;0.15;;;;;;;;;;5038268;28;20036;-76
2024/01/04 04:36:57;;;;;;;0.70;0.20;;;;;;;;;;5039089;28;20028;-76
2024/01/04 04:39:22;;;;;;;0.20;0.20;;;;;;;;;;5038264;28;20022;-77
2024/01/04 04:41:48;;;;;;;0.10;0.10;;;;;;;;;;5038038;28;20032;-76
2024/01/04 04:44:13;;;;;;;3.30;0.30;;;;;;;;;;5038440;28;20346;-76
2024/01/04 04:46:38;;;;;;;1.10;0.30;;;;;;;;;;5038113;28;20258;-76
2024/01/04 04:49:03;;;;;;;4.13;1.57;;;;;;;;;;5019528;28;20021;-76
2024/01/04 04:51:28;;;;;;;9.00;3.47;;;;;;;;;;5037556;28;20254;-77
2024/01/04 04:53:54;;;;;;;4.23;1.23;;;;;;;;;;5036763;28;20258;-77
2024/01/04 04:56:19;;;;;;;3.05;1.35;;;;;;;;;;5037539;28;20254;-77
2024/01/04 04:58:44;;;;;;;2.57;1.30;;;;;;;;;;5037223;28;20053;-77
2024/01/04 05:01:09;;;;;;;6.47;2.63;;;;;;;;;;5036931;28;20267;-77
2024/01/04 05:03:35;;;;;;;3.28;1.35;;;;;;;;;;5020048;28;20254;-77
2024/01/04 05:06:01;;;;;;;0.77;0.30;;;;;;;;;;5039459;28;20029;-76
2024/01/04 05:08:26;;;;;;;0.45;0.28;;;;;;;;;;5039053;28;20560;-76
2024/01/04 05:10:52;;;;;;;0.40;0.30;;;;;;;;;;5021923;28;20080;-77
2024/01/04 05:13:17;;;;;;;0.20;0.20;;;;;;;;;;5035939;28;20262;-76
2024/01/04 05:15:43;;;;;;;0.47;0.20;;;;;;;;;;5036328;28;20029;-76
2024/01/04 05:18:09;;;;;;;0.20;0.10;;;;;;;;;;5036329;28;20033;-76
2024/01/04 05:20:34;;;;;;;1.02;0.20;;;;;;;;;;5036330;28;20494;-76
2024/01/04 05:22:59;;;;;;;0.25;0.15;;;;;;;;;;5036246;28;20049;-75
2024/01/04 05:25:24;;;;;;;0.23;0.20;;;;;;;;;;5036493;28;20031;-76
2024/01/04 05:27:50;;;;;;;0.60;0.40;;;;;;;;;;5036344;28;20282;-78
2024/01/04 05:30:15;;;;;;;0.40;0.40;;;;;;;;;;5036655;28;20477;-77
2024/01/04 05:32:40;;;;;;;0.10;0.10;;;;;;;;;;5036319;28;20110;-75
2024/01/04 05:35:06;;;;;;;0.30;0.20;;;;;;;;;;5037147;28;20067;-76
2024/01/04 05:37:31;;;;;;;0.57;0.40;;;;;;;;;;5036515;28;20259;-76
2024/01/04 05:39:56;;;;;;;0.97;0.60;;;;;;;;;;5036456;28;20013;-76
2024/01/04 05:42:21;;;;;;;0.60;0.50;;;;;;;;;;5036411;28;20400;-76
2024/01/04 05:44:47;;;;;;;0.50;0.50;;;;;;;;;;5035969;28;20297;-76
2024/01/04 05:47:12;;;;;;;1.30;0.50;;;;;;;;;;5036098;28;20266;-76
2024/01/04 05:49:37;;;;;;;0.85;0.40;;;;;;;;;;5017259;28;20271;-76
2024/01/04 05:52:03;;;;;;;1.05;0.50;;;;;;;;;;5036079;28;20033;-77
2024/01/04 05:54:28;;;;;;;0.60;0.50;;;;;;;;;;5017688;28;20030;-77
2024/01/04 05:56:54;;;;;;;2.15;0.57;;;;;;;;;;5035660;28;20033;-77
2024/01/04 05:59:19;;;;;;;0.77;0.40;;;;;;;;;;5018366;28;20033;-76
2024/01/04 06:01:44;;;;;;;0.40;0.32;;;;;;;;;;5017741;28;20325;-76
2024/01/04 06:04:09;;;;;;;0.20;0.20;;;;;;;;;;5036746;28;20060;-75
2024/01/04 06:06:35;;;;;;;1.23;0.30;;;;;;;;;;5035508;28;20461;-75
2024/01/04 06:09:00;;;;;;;0.73;0.40;;;;;;;;;;5035287;28;20721;-76
2024/01/04 06:11:25;;;;;;;0.57;0.47;;;;;;;;;;5035260;28;20032;-76
2024/01/04 06:13:50;;;;;;;0.50;0.32;;;;;;;;;;5035829;28;20067;-74
2024/01/04 06:16:17;;;;;;;0.63;0.47;;;;;;;;;;5035147;28;20029;-76
2024/01/04 06:18:42;;;;;;;0.90;0.40;;;;;;;;;;5034974;28;20266;-75
2024/01/04 06:21:07;;;;;;;0.88;0.40;;;;;;;;;;5035948;28;20021;-78
2024/01/04 06:23:33;;;;;;;0.10;0.10;;;;;;;;;;5017395;28;20026;-76
2024/01/04 06:25:58;;;;;;;18.40;1.25;;;;;;;;;;5016443;28;20345;-77
2024/01/04 06:28:24;;;;;;;1.38;0.22;;;;;;;;;;5034391;28;20091;-78
2024/01/04 06:30:50;;;;;;;0.28;0.20;;;;;;;;;;5017516;28;20036;-77
2024/01/04 06:33:16;;;;;;;2.22;0.40;;;;;;;;;;5034638;28;20408;-77
2024/01/04 06:35:42;;;;;;;0.88;0.38;;;;;;;;;;5017751;28;20137;-76
2024/01/04 06:38:08;;;;;;;0.52;0.20;;;;;;;;;;5016592;28;20075;-77
2024/01/04 06:40:38;;;;;;;0.32;0.28;;;;;;;;;;5017001;28;20030;-77
2024/01/04 06:43:08;;;;;;;1.23;0.50;;;;;;;;;;5017128;28;20040;-77
2024/01/04 06:45:33;;;;;;;1.30;0.30;;;;;;;;;;5018129;28;20080;-78
2024/01/04 06:47:59;;;;;;;0.30;0.30;;;;;;;;;;5019693;28;20489;-81
2024/01/04 06:50:24;;;;;;;0.25;0.20;;;;;;;;;;5034738;28;20389;-76
2024/01/04 06:52:49;;;;;;;1.30;0.40;;;;;;;;;;5015537;28;20032;-76
2024/01/04 06:55:15;;;;;;;2.15;0.20;;;;;;;;;;5032403;28;20733;-77
2024/01/04 06:57:41;;;;;;;0.13;0.13;;;;;;;;;;5033242;28;20441;-76
2024/01/04 07:00:10;;;;;;;1.40;0.70;;;;;;;;;;5035673;28;20029;-78
2024/01/04 07:02:36;;;;;;;0.40;0.30;;;;;;;;;;5018816;28;20563;-77
2024/01/04 07:05:06;;;;;;;0.20;0.20;;;;;;;;;;5017324;28;20033;-76
2024/01/04 07:07:32;;;;;;;0.30;0.30;;;;;;;;;;5034277;28;20370;-77
2024/01/04 07:09:57;;;;;;;0.43;0.30;;;;;;;;;;5033675;28;20032;-76
2024/01/04 07:12:25;;;;;;;2.38;0.30;;;;;;;;;;5033712;28;20374;-77
2024/01/04 07:14:50;;;;;;;0.28;0.28;;;;;;;;;;5015519;28;20028;-77
2024/01/04 07:17:16;;;;;;;1.80;0.40;;;;;;;;;;5033124;28;20037;-77
2024/01/04 07:19:43;;;;;;;0.90;0.40;;;;;;;;;;5016700;28;20048;-78
2024/01/04 07:22:08;;;;;;;0.70;0.30;;;;;;;;;;5034599;28;20503;-77
2024/01/04 07:24:33;;;;;;;0.20;0.17;;;;;;;;;;5034099;28;20029;-77
2024/01/04 07:26:58;;;;;;;0.10;0.10;;;;;;;;;;5033590;28;20444;-75
2024/01/04 07:29:24;;;;;;;0.20;0.20;;;;;;;;;;5033440;28;20832;-77
2024/01/04 07:31:49;;;;;;;1.75;0.30;;;;;;;;;;5035058;28;20029;-78
2024/01/04 07:34:15;;;;;;;3.93;0.50;;;;;;;;;;5034766;28;20481;-78
2024/01/04 07:36:40;;;;;;;0.30;0.30;;;;;;;;;;5034486;28;20780;-76
2024/01/04 07:39:06;;;;;;;0.50;0.30;;;;;;;;;;5015805;28;20745;-77
2024/01/04 07:41:31;;;;;;;0.55;0.30;;;;;;;;;;5033881;28;20286;-77
2024/01/04 07:43:57;;;;;;;0.40;0.32;;;;;;;;;;5033973;28;20484;-77
2024/01/04 07:46:22;;;;;;;0.28;0.28;;;;;;;;;;5034179;28;20036;-77
2024/01/04 07:48:47;;;;;;;0.23;0.20;;;;;;;;;;5034204;28;20030;-77
2024/01/04 07:51:13;;;;;;;0.83;0.40;;;;;;;;;;5033616;28;20282;-77
2024/01/04 07:53:40;;;;;;;2.97;0.40;;;;;;;;;;5015997;28;20263;-77
2024/01/04 07:56:05;;;;;;;1.08;0.68;;;;;;;;;;5034232;28;20270;-77
2024/01/04 07:58:31;;;;;;;0.63;0.38;;;;;;;;;;5033810;28;20021;-77
2024/01/04 08:00:56;;;;;;;0.70;0.47;;;;;;;;;;5033219;28;20025;-77
2024/01/04 08:03:21;;;;;;;1.30;0.70;;;;;;;;;;5036889;28;20045;-76
2024/01/04 08:05:46;;;;;;;0.37;0.37;;;;;;;;;;5038549;28;20029;-77
2024/01/04 08:08:12;;;;;;;1.30;0.50;;;;;;;;;;5021249;28;20279;-76
2024/01/04 08:10:37;;;;;;;0.60;0.40;;;;;;;;;;5020668;28;20306;-76
2024/01/04 08:13:02;;;;;;;0.33;0.30;;;;;;;;;;5037745;28;20079;-75
2024/01/04 08:15:29;;;;;;;0.50;0.40;;;;;;;;;;5037801;28;20318;-77
2024/01/04 08:17:54;;;;;;;0.47;0.38;;;;;;;;;;5037154;28;20030;-77
2024/01/04 08:20:20;;;;;;;2.17;0.30;;;;;;;;;;5037891;28;20030;-77
2024/01/04 08:22:45;;;;;;;0.30;0.30;;;;;;;;;;5037973;28;20250;-77
2024/01/04 08:25:10;;;;;;;0.40;0.25;;;;;;;;;;5037369;28;20493;-77
2024/01/04 08:27:36;;;;;;;1.50;0.30;;;;;;;;;;5036944;28;20393;-81
2024/01/04 08:30:01;;;;;;;0.38;0.20;;;;;;;;;;5039853;28;20283;-78
2024/01/04 08:32:26;;;;;;;0.30;0.30;;;;;;;;;;5040947;28;20025;-78
2024/01/04 08:34:52;;;;;;;0.73;0.50;;;;;;;;;;5041229;28;20104;-80
2024/01/04 08:37:18;;;;;;;0.77;0.40;;;;;;;;;;5023471;28;20029;-83
2024/01/04 08:39:44;;;;;;;0.30;0.30;;;;;;;;;;5041188;28;20022;-81
2024/01/04 08:42:09;;;;;;;2.78;0.52;;;;;;;;;;5041760;28;20030;-81
2024/01/04 08:44:34;;;;;;;2.03;0.52;;;;;;;;;;5041769;28;20030;-82
2024/01/04 08:46:59;;;;;;;0.75;0.35;;;;;;;;;;5042303;28;20022;-82
2024/01/04 08:49:25;;;;;;;2.67;0.50;;;;;;;;;;5023344;28;20022;-81
2024/01/04 08:51:52;;;;;;;0.73;0.40;;;;;;;;;;5041644;28;20263;-82
2024/01/04 08:54:17;;;;;;;0.93;0.43;;;;;;;;;;5042506;28;20337;-82
2024/01/04 08:56:43;;;;;;;0.90;0.30;;;;;;;;;;5046426;28;20037;-82
2024/01/04 08:59:08;;;;;;;0.90;0.47;;;;;;;;;;5047916;28;20258;-79
2024/01/04 09:01:33;;;;;;;0.40;0.30;;;;;;;;;;5052803;28;20263;-80
2024/01/04 09:03:58;;;;;;;0.60;0.27;;;;;;;;;;5052308;28;20269;-79
2024/01/04 09:06:23;;;;;;;0.30;0.30;;;;;;;;;;5031975;28;20342;-80
2024/01/04 09:08:49;;;;;;;0.25;0.25;;;;;;;;;;5045425;28;20273;-81
2024/01/04 09:11:16;;;;;;;0.23;0.23;;;;;;;;;;5030334;28;20025;-81
2024/01/04 09:13:44;;;;;;;0.57;0.40;;;;;;;;;;5027314;28;20266;-81
2024/01/04 09:16:09;;;;;;;1.17;0.50;;;;;;;;;;5044923;28;20029;-82
2024/01/04 09:18:35;;;;;;;0.20;0.20;;;;;;;;;;5044962;28;20071;-82
2024/01/04 09:21:00;;;;;;;0.73;0.57;;;;;;;;;;5026143;28;20495;-81
2024/01/04 09:23:26;;;;;;;0.80;0.80;;;;;;;;;;5044764;28;20025;-81
2024/01/04 09:25:51;;;;;;;0.20;0.20;;;;;;;;;;5025936;28;20025;-82
2024/01/04 09:28:18;;;;;;;0.43;0.30;;;;;;;;;;5043271;28;20053;-81
2024/01/04 09:30:44;;;;;;;0.70;0.43;;;;;;;;;;5043013;28;20028;-82
2024/01/04 09:33:10;;;;;;;0.30;0.30;;;;;;;;;;5043568;28;20059;-82
2024/01/04 09:35:35;;;;;;;0.63;0.40;;;;;;;;;;5043321;28;20029;-81
2024/01/04 09:38:00;;;;;;;0.60;0.30;;;;;;;;;;5042062;28;20091;-84
2024/01/04 09:40:25;;;;;;;0.85;0.30;;;;;;;;;;5041307;28;20246;-82
2024/01/04 09:42:54;;;;;;;1.38;0.28;;;;;;;;;;5021856;28;20365;-80
2024/01/04 09:45:21;;;;;;;0.25;0.25;;;;;;;;;;5038294;28;20029;-79
2024/01/04 09:47:50;;;;;;;0.32;0.30;;;;;;;;;;5038240;28;20025;-79
2024/01/04 09:50:15;;;;;;;6.32;0.30;;;;;;;;;;5037525;28;20029;-83
2024/01/04 09:52:47;;;;;;;0.73;0.20;;;;;;;;;;5021848;28;20029;-83
2024/01/04 09:55:12;;;;;;;0.57;0.22;;;;;;;;;;5041510;28;20056;-82
2024/01/04 09:57:38;;;;;;;0.52;0.30;;;;;;;;;;5041521;28;20029;-80
2024/01/04 10:00:04;;;;;;;1.52;0.65;;;;;;;;;;5008077;28;20021;-80
2024/01/04 10:02:32;;;;;;;2.50;0.45;;;;;;;;;;5041977;28;20070;-81
2024/01/04 10:04:59;;;;;;;2.28;0.50;;;;;;;;;;5042415;28;20507;-79
2024/01/04 10:07:30;;;;;;;0.13;0.13;;;;;;;;;;5043979;28;20033;-79
2024/01/04 10:10:08;;;;;;;0.63;0.45;;;;;;;;;;5043434;28;20036;-78
2024/01/04 10:12:34;;;;;;;2.50;0.40;;;;;;;;;;5025253;28;20033;-80
2024/01/04 10:14:59;;;;;;;0.45;0.35;;;;;;;;;;5043249;28;20536;-80
2024/01/04 10:17:24;;;;;;;1.92;0.60;;;;;;;;;;5043314;28;20034;-79
2024/01/04 10:19:50;;;;;;;0.57;0.40;;;;;;;;;;5043634;28;20026;-81
2024/01/04 10:22:20;;;;;;;0.77;0.30;;;;;;;;;;5043372;28;20055;-80
2024/01/04 10:24:47;;;;;;;0.98;0.30;;;;;;;;;;5042807;28;20251;-80
2024/01/04 10:27:18;;;;;;;0.63;0.32;;;;;;;;;;5025588;28;20025;-79
2024/01/04 10:29:46;;;;;;;0.93;0.40;;;;;;;;;;5042579;28;20029;-81
2024/01/04 10:32:13;;;;;;;0.75;0.47;;;;;;;;;;5039597;28;20022;-79
2024/01/04 10:34:39;;;;;;;1.00;0.30;;;;;;;;;;5041109;28;20029;-80
2024/01/04 10:37:09;;;;;;;0.70;0.40;;;;;;;;;;5040138;28;20033;-82
2024/01/04 10:39:36;;;;;;;0.35;0.30;;;;;;;;;;5039251;28;20025;-82
2024/01/04 10:42:01;;;;;;;0.47;0.20;;;;;;;;;;5021681;28;20029;-83
2024/01/04 10:44:28;;;;;;;0.47;0.40;;;;;;;;;;5039048;28;20026;-83
2024/01/04 10:46:57;;;;;;;0.10;0.10;;;;;;;;;;5040032;28;20033;-82
2024/01/04 10:49:23;;;;;;;0.43;0.30;;;;;;;;;;5040304;28;20022;-82
2024/01/04 10:51:51;;;;;;;0.82;0.40;;;;;;;;;;5041392;28;20022;-83
2024/01/04 10:54:18;;;;;;;0.38;0.38;;;;;;;;;;5039319;28;20021;-85
2024/01/04 10:56:44;;;;;;;0.40;0.30;;;;;;;;;;5038789;28;20037;-84
2024/01/04 10:59:11;;;;;;;0.88;0.40;;;;;;;;;;5037964;28;20075;-84
2024/01/04 11:01:37;;;;;;;0.35;0.30;;;;;;;;;;5041316;28;20116;-82
2024/01/04 11:04:02;;;;;;;0.55;0.45;;;;;;;;;;5036394;28;20065;-84
2024/01/04 11:06:28;;;;;;;0.40;0.30;;;;;;;;;;5022020;28;20025;-82
2024/01/04 11:08:57;;;;;;;1.58;0.40;;;;;;;;;;5043028;28;20404;-84
2024/01/04 11:11:24;;;;;;;0.30;0.30;;;;;;;;;;5019428;28;20603;-82
2024/01/04 11:13:49;;;;;;;0.28;0.28;;;;;;;;;;5036222;28;20167;-83
2024/01/04 11:16:32;;;;;;;0.50;0.50;;;;;;;;;;5018086;28;20503;-82
2024/01/04 11:19:27;;;;;;;7.65;0.93;;;;;;;;;;5019083;28;20271;-84
2024/01/04 11:22:28;;;;;;;0.50;0.43;;;;;;;;;;5037564;28;20049;-84
2024/01/04 11:25:10;;;;;;;1.00;0.55;;;;;;;;;;5038434;28;20084;-83
2024/01/04 11:27:35;;;;;;;0.85;0.40;;;;;;;;;;5038713;28;20049;-83
2024/01/04 11:30:02;;;;;;;0.68;0.30;;;;;;;;;;5021667;28;20029;-84
2024/01/04 11:32:29;;;;;;;0.45;0.45;;;;;;;;;;5038964;28;20029;-84
2024/01/04 11:34:55;;;;;;;0.65;0.40;;;;;;;;;;5020545;28;20032;-82
2024/01/04 11:37:21;;;;;;;0.80;0.50;;;;;;;;;;5024389;28;20477;-83
2024/01/04 11:39:52;;;;;;;3.08;0.30;;;;;;;;;;5043619;28;20425;-84
2024/01/04 11:42:19;;;;;;;1.73;0.45;;;;;;;;;;5023805;28;20033;-83
2024/01/04 11:44:48;;;;;;;0.50;0.45;;;;;;;;;;5024526;28;20068;-85
2024/01/04 11:47:14;;;;;;;0.75;0.50;;;;;;;;;;5043222;28;20083;-84
2024/01/04 11:49:46;;;;;;;0.77;0.60;;;;;;;;;;5025172;28;20025;-83
2024/01/04 11:52:11;;;;;;;0.70;0.47;;;;;;;;;;5044733;28;20033;-82
2024/01/04 11:54:40;;;;;;;0.80;0.50;;;;;;;;;;5045964;28;20148;-82
2024/01/04 11:57:18;;;;;;;0.60;0.43;;;;;;;;;;5044844;28;20033;-83
2024/01/04 11:59:43;;;;;;;0.93;0.50;;;;;;;;;;5043279;28;20420;-83
2024/01/04 12:02:16;;;;;;;1.05;0.63;;;;;;;;;;5025861;28;20032;-83
2024/01/04 12:04:42;;;;;;;0.63;0.60;;;;;;;;;;5043587;28;20052;-83
2024/01/04 12:07:10;;;;;;;1.05;0.60;;;;;;;;;;5046583;28;20033;-82
2024/01/04 12:09:36;;;;;;;0.50;0.40;;;;;;;;;;5042795;28;20400;-83
2024/01/04 12:12:01;;;;;;;0.63;0.50;;;;;;;;;;5040950;28;20112;-83
2024/01/04 12:14:27;;;;;;;14.32;3.50;;;;;;;;;;5043015;28;20036;-81
2024/01/04 12:16:52;;;;;;;0.50;0.50;;;;;;;;;;5043575;28;20025;-84
2024/01/04 12:19:17;;;;;;;0.40;0.40;;;;;;;;;;5043961;28;20083;-83
2024/01/04 12:21:44;;;;;;;0.32;0.30;;;;;;;;;;5042292;28;20266;-81
2024/01/04 12:24:09;;;;;;;12.43;2.42;;;;;;;;;;5024406;28;20029;-81
2024/01/04 12:26:35;;;;;;;0.55;0.50;;;;;;;;;;5026706;28;20025;-81
2024/01/04 12:29:00;;;;;;;0.85;0.47;;;;;;;;;;5043439;28;20532;-83
2024/01/04 12:31:26;;;;;;;0.98;0.60;;;;;;;;;;5046763;28;20061;-83
2024/01/04 12:33:57;;;;;;;1.50;0.52;;;;;;;;;;5045943;28;20021;-83
2024/01/04 12:36:23;;;;;;;1.20;0.50;;;;;;;;;;5045561;28;20029;-84
2024/01/04 12:38:53;;;;;;;0.30;0.30;;;;;;;;;;5045869;28;20439;-82
2024/01/04 12:41:29;;;;;;;0.63;0.50;;;;;;;;;;5045267;28;20053;-83
2024/01/04 12:43:56;;;;;;;0.40;0.40;;;;;;;;;;5024854;28;20400;-83
2024/01/04 12:46:22;;;;;;;0.55;0.50;;;;;;;;;;5043628;28;20049;-81
2024/01/04 12:48:48;;;;;;;0.90;0.70;;;;;;;;;;5043927;28;20049;-84
2024/01/04 12:51:16;;;;;;;0.55;0.45;;;;;;;;;;5027434;28;20507;-82
2024/01/04 12:53:44;;;;;;;1.13;0.70;;;;;;;;;;5041455;28;20034;-84
2024/01/04 12:56:11;;;;;;;1.38;0.77;;;;;;;;;;5043040;28;20104;-83
2024/01/04 12:58:36;;;;;;;0.63;0.50;;;;;;;;;;5041428;28;20065;-82
2024/01/04 13:01:04;;;;;;;0.82;0.60;;;;;;;;;;5039331;28;20036;-85
2024/01/04 13:03:30;;;;;;;0.73;0.68;;;;;;;;;;5038110;28;20033;-80
2024/01/04 13:05:55;;;;;;;1.00;0.87;;;;;;;;;;5038940;28;20029;-83
2024/01/04 13:08:20;;;;;;;0.95;0.70;;;;;;;;;;5022139;28;20321;-78
2024/01/04 13:10:45;;;;;;;0.93;0.70;;;;;;;;;;5051022;28;20025;-79
2024/01/04 13:13:11;;;;;;;0.77;0.70;;;;;;;;;;5055320;28;20254;-84
2024/01/04 13:15:36;;;;;;;1.13;0.80;;;;;;;;;;5039729;28;20028;-86
2024/01/04 13:18:02;;;;;;;1.60;0.80;;;;;;;;;;5023508;28;20064;-85
2024/01/04 13:20:28;;;;;;;1.65;0.68;;;;;;;;;;5040773;28;20345;-85
2024/01/04 13:22:53;;;;;;;0.98;0.70;;;;;;;;;;5024101;28;20049;-86
2024/01/04 13:25:18;;;;;;;2.10;0.93;;;;;;;;;;5023537;28;20037;-83
2024/01/04 13:27:44;;;;;;;1.50;1.00;;;;;;;;;;5023726;28;20361;-85
2024/01/04 13:30:12;;;;;;;1.27;0.73;;;;;;;;;;5040063;28;20318;-85
2024/01/04 13:32:38;;;;;;;0.85;0.50;;;;;;;;;;5039389;28;20334;-82
2024/01/04 13:35:04;;;;;;;0.93;0.82;;;;;;;;;;5021409;28;20025;-84
2024/01/04 13:37:29;;;;;;;1.30;0.98;;;;;;;;;;5022684;28;20025;-84
2024/01/04 13:39:54;;;;;;;1.03;0.87;;;;;;;;;;5040769;28;20025;-85
2024/01/04 13:42:20;;;;;;;3.00;1.00;;;;;;;;;;5026017;28;20266;-84
2024/01/04 13:44:45;;;;;;;2.22;0.90;;;;;;;;;;5042920;28;20260;-84
2024/01/04 13:47:11;;;;;;;1.52;1.08;;;;;;;;;;5026092;28;20026;-84
2024/01/04 13:49:36;;;;;;;2.42;1.00;;;;;;;;;;5026378;28;20040;-83
2024/01/04 13:52:03;;;;;;;2.42;1.52;;;;;;;;;;5044341;28;20097;-84
2024/01/04 13:54:28;;;;;;;0.90;0.85;;;;;;;;;;5043868;28;20036;-85
2024/01/04 13:56:53;;;;;;;3.35;0.98;;;;;;;;;;5026487;28;20021;-84
2024/01/04 13:59:18;;;;;;;0.70;0.57;;;;;;;;;;5039769;28;20037;-85
2024/01/04 14:01:44;;;;;;;1.33;0.70;;;;;;;;;;5038810;28;20603;-84
2024/01/04 14:04:09;;;;;;;1.63;0.80;;;;;;;;;;5037521;28;20265;-84
2024/01/04 14:06:34;;;;;;;4.88;1.00;;;;;;;;;;5040798;28;20667;-82
2024/01/04 14:08:59;;;;;;;0.63;0.63;;;;;;;;;;5042393;28;20033;-82
2024/01/04 14:11:24;;;;;;;1.90;0.75;;;;;;;;;;5042472;28;20282;-82
2024/01/04 14:13:51;;;;;;;1.50;0.70;;;;;;;;;;5043095;28;20025;-83
2024/01/04 14:16:16;;;;;;;1.65;0.80;;;;;;;;;;5042117;28;20746;-83
2024/01/04 14:18:41;;;;;;;14.10;2.92;;;;;;;;;;5020533;28;20021;-81
2024/01/04 14:21:06;;;;;;;1.93;1.00;;;;;;;;;;5038914;28;20024;-83
2024/01/04 14:23:32;;;;;;;2.42;0.90;;;;;;;;;;5019289;28;20353;-82
2024/01/04 14:25:58;;;;;;;1.20;0.77;;;;;;;;;;5035777;28;20021;-83
2024/01/04 14:28:23;;;;;;;5.18;0.82;;;;;;;;;;5035554;28;20021;-81
2024/01/04 14:30:49;;;;;;;2.40;1.05;;;;;;;;;;5036334;28;20423;-83
2024/01/04 14:33:14;;;;;;;1.50;0.88;;;;;;;;;;5037205;28;20028;-83
2024/01/04 14:35:40;;;;;;;2.28;0.90;;;;;;;;;;5037931;28;20075;-82